createdAt,value
2018-10-12T00:00:54.903Z,13.37
2018-10-12T00:03:22.631Z,14.93
2018-10-12T00:05:49.884Z,15.63
2018-10-12T00:08:17.168Z,15.97
2018-10-12T00:10:44.462Z,12.70
2018-10-12T00:13:11.816Z,13.63
2018-10-12T00:15:39.082Z,12.00
2018-10-12T00:18:06.560Z,10.83
2018-10-12T00:20:34.011Z,15.13
2018-10-12T00:23:01.332Z,13.00
2018-10-12T00:25:28.645Z,11.53
2018-10-12T00:27:55.972Z,10.17
2018-10-12T00:30:23.223Z,7.50
2018-10-12T00:32:50.560Z,9.13
2018-10-12T00:35:17.884Z,9.33
2018-10-12T00:37:45.195Z,9.53
2018-10-12T00:40:12.534Z,12.57
2018-10-12T00:42:39.890Z,13.40
2018-10-12T00:45:07.168Z,13.70
2018-10-12T00:47:34.438Z,15.63
2018-10-12T00:50:01.780Z,9.50
2018-10-12T00:52:29.062Z,8.60
2018-10-12T00:54:56.527Z,9.57
2018-10-12T00:57:24.036Z,9.30
2018-10-12T00:59:51.356Z,12.67
2018-10-12T01:02:18.674Z,7.33
2018-10-12T01:04:46.055Z,9.57
2018-10-12T01:07:13.508Z,12.67
2018-10-12T01:09:40.916Z,7.30
2018-10-12T01:12:23.276Z,8.27
2018-10-12T01:14:54.405Z,10.60
2018-10-12T01:17:21.918Z,13.03
2018-10-12T01:19:49.322Z,14.43
2018-10-12T01:22:16.800Z,11.40
2018-10-12T01:24:44.178Z,12.63
2018-10-12T01:27:11.731Z,9.23
2018-10-12T01:29:39.108Z,12.70
2018-10-12T01:32:06.389Z,12.37
2018-10-12T01:34:33.669Z,11.33
2018-10-12T01:37:00.929Z,10.50
2018-10-12T01:39:28.298Z,15.70
2018-10-12T01:41:55.631Z,9.73
2018-10-12T01:45:47.509Z,13.90
2018-10-12T01:48:14.834Z,11.83
2018-10-12T01:50:42.203Z,13.83
2018-10-12T01:53:09.446Z,14.20
2018-10-12T01:55:36.760Z,13.30
2018-10-12T01:58:04.020Z,16.90
2018-10-12T02:00:31.406Z,10.10
2018-10-12T02:02:58.681Z,13.10
2018-10-12T02:05:26.140Z,14.90
2018-10-12T02:07:53.560Z,16.40
2018-10-12T02:10:20.888Z,17.10
2018-10-12T02:12:48.180Z,16.47
2018-10-12T02:15:15.627Z,15.63
2018-10-12T02:17:42.948Z,12.10
2018-10-12T02:20:10.722Z,12.23
2018-10-12T02:22:38.061Z,11.10
2018-10-12T02:25:05.986Z,13.23
2018-10-12T02:27:33.226Z,11.00
2018-10-12T02:30:00.517Z,15.43
2018-10-12T02:32:27.934Z,8.77
2018-10-12T02:34:55.250Z,9.87
2018-10-12T02:37:23.053Z,11.90
2018-10-12T02:39:50.380Z,9.40
2018-10-12T02:42:17.706Z,13.30
2018-10-12T02:44:44.994Z,15.27
2018-10-12T02:47:12.330Z,11.40
2018-10-12T02:49:39.705Z,12.30
2018-10-12T02:52:06.984Z,14.60
2018-10-12T02:54:34.326Z,12.80
2018-10-12T02:57:02.201Z,12.50
2018-10-12T02:59:29.446Z,13.93
2018-10-12T03:01:56.726Z,18.27
2018-10-12T03:04:24.040Z,10.77
2018-10-12T03:06:51.340Z,11.80
2018-10-12T03:09:18.695Z,8.23
2018-10-12T03:11:45.955Z,12.10
2018-10-12T03:14:13.229Z,13.87
2018-10-12T03:16:40.573Z,12.60
2018-10-12T03:19:07.792Z,9.90
2018-10-12T03:21:35.074Z,12.90
2018-10-12T03:24:02.373Z,11.07
2018-10-12T03:26:29.655Z,11.83
2018-10-12T03:28:56.961Z,9.80
2018-10-12T03:31:24.468Z,8.97
2018-10-12T03:33:51.822Z,7.90
2018-10-12T03:36:19.158Z,9.60
2018-10-12T03:38:46.552Z,14.73
2018-10-12T03:41:13.915Z,10.23
2018-10-12T03:43:41.197Z,8.20
2018-10-12T03:46:08.477Z,9.43
2018-10-12T03:48:35.757Z,9.13
2018-10-12T03:51:03.106Z,8.17
2018-10-12T03:53:30.472Z,9.30
2018-10-12T03:55:57.731Z,8.93
2018-10-12T03:58:25.024Z,8.00
2018-10-12T04:00:52.348Z,14.50
2018-10-12T04:03:19.808Z,17.17
2018-10-12T04:05:47.095Z,13.03
2018-10-12T04:08:14.422Z,9.33
2018-10-12T04:10:41.719Z,11.57
2018-10-12T04:13:09.005Z,12.77
2018-10-12T04:15:36.364Z,13.73
2018-10-12T04:18:03.668Z,13.07
2018-10-12T04:20:30.949Z,13.20
2018-10-12T04:22:58.254Z,11.97
2018-10-12T04:25:25.567Z,10.43
2018-10-12T04:27:52.907Z,10.60
2018-10-12T04:30:20.180Z,15.23
2018-10-12T04:32:47.491Z,8.33
2018-10-12T04:35:15.083Z,8.67
2018-10-12T04:37:42.774Z,10.80
2018-10-12T04:40:21.667Z,10.83
2018-10-12T04:42:48.930Z,12.90
2018-10-12T04:45:16.338Z,10.87
2018-10-12T04:47:43.780Z,11.30
2018-10-12T04:50:11.188Z,9.90
2018-10-12T04:52:38.619Z,9.13
2018-10-12T04:55:05.895Z,10.20
2018-10-12T04:57:33.923Z,11.23
2018-10-12T05:00:01.227Z,15.53
2018-10-12T05:02:28.565Z,15.83
2018-10-12T05:04:55.890Z,12.73
2018-10-12T05:07:23.246Z,9.50
2018-10-12T05:09:50.520Z,14.00
2018-10-12T05:12:17.737Z,13.33
2018-10-12T05:14:45.036Z,14.27
2018-10-12T05:17:12.383Z,12.70
2018-10-12T05:19:39.830Z,14.27
2018-10-12T05:22:07.211Z,13.17
2018-10-12T05:24:34.510Z,15.40
2018-10-12T05:27:01.824Z,14.13
2018-10-12T05:29:29.148Z,13.53
2018-10-12T05:31:56.450Z,13.98
2018-10-12T05:34:23.691Z,12.05
2018-10-12T05:36:50.960Z,16.57
2018-10-12T05:39:18.215Z,17.43
2018-10-12T05:41:45.539Z,50.23
2018-10-12T05:44:12.848Z,25.55
2018-10-12T05:46:40.373Z,18.10
2018-10-12T05:49:19.234Z,14.85
2018-10-12T05:51:46.588Z,12.95
2018-10-12T05:54:14.335Z,16.25
2018-10-12T05:56:42.119Z,17.62
2018-10-12T05:59:09.433Z,10.70
2018-10-12T06:01:36.779Z,14.87
2018-10-12T06:04:04.116Z,11.85
2018-10-12T06:06:31.579Z,11.73
2018-10-12T06:08:58.909Z,19.25
2018-10-12T06:11:26.290Z,15.70
2018-10-12T06:13:53.418Z,18.35
2018-10-12T06:16:21.029Z,13.60
2018-10-12T06:18:48.465Z,12.60
2018-10-12T06:21:15.915Z,20.00
2018-10-12T06:23:43.224Z,16.07
2018-10-12T06:26:10.680Z,14.30
2018-10-12T06:28:38.171Z,15.37
2018-10-12T06:31:06.130Z,17.93
2018-10-12T06:33:33.454Z,10.20
2018-10-12T06:36:02.458Z,14.50
2018-10-12T06:38:29.841Z,18.47
2018-10-12T06:40:57.188Z,12.73
2018-10-12T06:43:24.494Z,17.13
2018-10-12T06:45:51.780Z,12.43
2018-10-12T06:48:19.188Z,20.17
2018-10-12T06:50:46.507Z,25.97
2018-10-12T06:53:13.799Z,14.10
2018-10-12T06:55:41.329Z,16.93
2018-10-12T06:58:08.631Z,13.57
2018-10-12T07:00:36.170Z,10.73
2018-10-12T07:03:03.614Z,15.17
2018-10-12T07:05:31.034Z,19.73
2018-10-12T07:07:58.974Z,14.80
2018-10-12T07:10:26.341Z,12.27
2018-10-12T07:12:53.660Z,17.60
2018-10-12T07:15:20.953Z,12.03
2018-10-12T07:17:48.262Z,12.87
2018-10-12T07:20:15.641Z,8.80
2018-10-12T07:22:42.913Z,10.10
2018-10-12T07:25:10.258Z,16.90
2018-10-12T07:27:37.653Z,11.07
2018-10-12T07:30:05.452Z,10.00
2018-10-12T07:32:32.729Z,10.73
2018-10-12T07:34:59.993Z,12.93
2018-10-12T07:37:27.300Z,9.83
2018-10-12T07:39:54.538Z,6.93
2018-10-12T07:42:21.792Z,7.63
2018-10-12T07:44:49.088Z,8.63
2018-10-12T07:47:16.375Z,17.63
2018-10-12T07:49:43.620Z,6.53
2018-10-12T07:52:10.872Z,12.17
2018-10-12T07:54:38.225Z,5.60
2018-10-12T07:57:11.231Z,8.90
2018-10-12T07:59:39.610Z,11.73
2018-10-12T08:02:08.404Z,5.43
2018-10-12T08:04:35.800Z,5.60
2018-10-12T08:07:03.225Z,13.17
2018-10-12T08:09:30.602Z,5.50
2018-10-12T08:11:57.884Z,3.30
2018-10-12T08:14:25.299Z,5.40
2018-10-12T08:16:52.788Z,6.30
2018-10-12T08:19:20.169Z,4.77
2018-10-12T08:21:47.481Z,5.60
2018-10-12T08:24:14.856Z,10.97
2018-10-12T08:26:42.158Z,2.70
2018-10-12T08:29:09.426Z,3.63
2018-10-12T08:31:36.872Z,5.27
2018-10-12T08:34:04.090Z,3.40
2018-10-12T08:36:31.463Z,7.97
2018-10-12T08:38:58.848Z,6.10
2018-10-12T08:41:26.184Z,6.60
2018-10-12T08:43:53.489Z,5.93
2018-10-12T08:46:21.779Z,4.80
2018-10-12T08:48:49.076Z,4.57
2018-10-12T08:51:16.424Z,6.80
2018-10-12T08:53:43.780Z,4.73
2018-10-12T08:56:11.086Z,8.33
2018-10-12T08:58:38.428Z,3.10
2018-10-12T09:01:06.177Z,5.17
2018-10-12T09:03:33.499Z,7.53
2018-10-12T09:06:00.830Z,3.70
2018-10-12T09:08:28.215Z,8.73
2018-10-12T09:10:55.489Z,3.10
2018-10-12T09:13:22.775Z,6.57
2018-10-12T09:15:50.121Z,3.33
2018-10-12T09:18:17.503Z,3.23
2018-10-12T09:20:44.805Z,4.17
2018-10-12T09:23:12.709Z,9.40
2018-10-12T09:25:40.028Z,6.27
2018-10-12T09:28:07.351Z,7.40
2018-10-12T09:30:34.676Z,4.67
2018-10-12T09:33:01.981Z,5.03
2018-10-12T09:35:29.265Z,2.90
2018-10-12T09:37:56.566Z,4.47
2018-10-12T09:40:23.912Z,4.93
2018-10-12T09:42:51.202Z,3.37
2018-10-12T09:45:18.507Z,2.30
2018-10-12T09:47:45.928Z,3.20
2018-10-12T09:50:13.266Z,5.23
2018-10-12T09:52:40.648Z,3.43
2018-10-12T09:55:07.958Z,5.97
2018-10-12T09:57:36.370Z,5.33
2018-10-12T10:00:07.803Z,5.33
2018-10-12T10:02:40.366Z,3.87
2018-10-12T10:05:08.820Z,2.03
2018-10-12T10:07:36.530Z,9.37
2018-10-12T10:10:04.044Z,2.50
2018-10-12T10:12:31.503Z,3.00
2018-10-12T10:15:08.128Z,5.07
2018-10-12T10:17:35.428Z,7.90
2018-10-12T10:20:02.760Z,4.37
2018-10-12T10:22:30.129Z,4.87
2018-10-12T10:24:57.785Z,2.43
2018-10-12T10:27:26.476Z,3.30
2018-10-12T10:29:53.810Z,5.20
2018-10-12T10:32:21.146Z,6.20
2018-10-12T10:34:48.436Z,7.70
2018-10-12T10:37:15.708Z,4.73
2018-10-12T10:39:43.010Z,3.93
2018-10-12T10:42:10.907Z,4.93
2018-10-12T10:44:38.265Z,2.23
2018-10-12T10:47:05.725Z,4.97
2018-10-12T10:49:33.028Z,3.63
2018-10-12T10:52:00.334Z,3.23
2018-10-12T10:54:27.634Z,3.00
2018-10-12T10:57:00.761Z,3.83
2018-10-12T10:59:28.373Z,2.43
2018-10-12T11:01:55.644Z,3.63
2018-10-12T11:04:22.909Z,5.80
2018-10-12T11:06:50.244Z,2.87
2018-10-12T11:09:17.635Z,8.07
2018-10-12T11:11:44.915Z,3.00
2018-10-12T11:14:12.184Z,9.40
2018-10-12T11:16:39.486Z,2.80
2018-10-12T11:19:06.774Z,7.43
2018-10-12T11:21:34.074Z,9.63
2018-10-12T11:24:01.395Z,5.20
2018-10-12T11:26:28.760Z,1.87
2018-10-12T11:28:56.065Z,5.03
2018-10-12T11:31:23.386Z,4.33
2018-10-12T11:33:50.717Z,3.63
2018-10-12T11:36:18.068Z,5.73
2018-10-12T11:38:45.339Z,2.40
2018-10-12T11:41:12.680Z,5.47
2018-10-12T11:43:40.390Z,1.63
2018-10-12T11:46:07.759Z,3.93
2018-10-12T11:48:35.074Z,6.50
2018-10-12T11:51:02.372Z,1.90
2018-10-12T11:53:29.741Z,3.43
2018-10-12T11:55:57.047Z,5.20
2018-10-12T11:58:24.734Z,4.20
2018-10-12T12:00:52.063Z,5.57
2018-10-12T12:03:19.338Z,5.60
2018-10-12T12:05:46.616Z,10.97
2018-10-12T12:08:13.858Z,12.53
2018-10-12T12:10:41.234Z,4.70
2018-10-12T12:13:08.528Z,5.67
2018-10-12T12:15:36.004Z,3.60
2018-10-12T12:18:03.377Z,3.07
2018-10-12T12:20:30.701Z,3.70
2018-10-12T12:22:58.003Z,2.93
2018-10-12T12:25:25.345Z,3.40
2018-10-12T12:27:52.726Z,7.20
2018-10-12T12:30:20.287Z,2.37
2018-10-12T12:32:47.722Z,4.50
2018-10-12T12:35:15.293Z,4.00
2018-10-12T12:37:42.457Z,2.80
2018-10-12T12:40:09.719Z,5.70
2018-10-12T12:42:37.183Z,5.23
2018-10-12T12:45:05.547Z,7.20
2018-10-12T12:47:33.073Z,4.67
2018-10-12T12:50:00.313Z,7.30
2018-10-12T12:52:27.627Z,2.30
2018-10-12T12:54:54.950Z,5.60
2018-10-12T12:57:22.184Z,5.63
2018-10-12T12:59:49.502Z,3.90
2018-10-12T13:02:16.729Z,8.00
2018-10-12T13:04:44.019Z,7.60
2018-10-12T13:07:11.377Z,4.90
2018-10-12T13:09:38.646Z,4.80
2018-10-12T13:12:05.985Z,8.00
2018-10-12T13:14:33.295Z,8.93
2018-10-12T13:17:00.589Z,3.37
2018-10-12T13:19:27.886Z,4.40
2018-10-12T13:21:55.243Z,2.87
2018-10-12T13:24:22.532Z,5.77
2018-10-12T13:26:49.849Z,9.33
2018-10-12T13:29:17.102Z,4.37
2018-10-12T13:31:44.423Z,12.33
2018-10-12T13:34:11.754Z,7.00
2018-10-12T13:36:39.193Z,8.83
2018-10-12T13:39:09.458Z,7.60
2018-10-12T13:41:37.064Z,3.40
2018-10-12T13:44:04.389Z,2.67
2018-10-12T13:46:31.694Z,5.20
2018-10-12T13:48:58.986Z,9.17
2018-10-12T13:51:26.325Z,5.90
2018-10-12T13:53:53.583Z,6.27
2018-10-12T13:56:20.832Z,4.13
2018-10-12T13:58:48.202Z,3.60
2018-10-12T14:01:15.432Z,8.50
2018-10-12T14:03:42.689Z,2.33
2018-10-12T14:06:09.974Z,3.50
2018-10-12T14:08:37.249Z,6.10
2018-10-12T14:11:04.525Z,5.80
2018-10-12T14:13:31.809Z,2.23
2018-10-12T14:15:59.096Z,3.10
2018-10-12T14:18:26.493Z,1.67
2018-10-12T14:20:53.740Z,3.10
2018-10-12T14:23:21.100Z,5.17
2018-10-12T14:25:48.397Z,8.13
2018-10-12T14:28:15.706Z,5.53
2018-10-12T14:30:42.992Z,5.10
2018-10-12T14:33:10.288Z,2.43
2018-10-12T14:35:37.603Z,4.80
2018-10-12T14:38:05.079Z,3.80
2018-10-12T14:40:32.388Z,2.60
2018-10-12T14:42:59.698Z,1.60
2018-10-12T14:45:26.990Z,5.23
2018-10-12T14:49:18.807Z,6.57
2018-10-12T14:51:46.233Z,3.13
2018-10-12T14:54:14.062Z,3.03
2018-10-12T14:56:41.328Z,2.77
2018-10-12T14:59:08.711Z,5.33
2018-10-12T15:01:35.946Z,1.93
2018-10-12T15:04:03.198Z,4.60
2018-10-12T15:06:30.535Z,8.10
2018-10-12T15:08:57.844Z,2.60
2018-10-12T15:11:25.225Z,1.60
2018-10-12T15:13:52.504Z,4.10
2018-10-12T15:16:19.827Z,5.17
2018-10-12T15:18:47.110Z,3.50
2018-10-12T15:21:14.622Z,2.37
2018-10-12T15:23:41.935Z,5.23
2018-10-12T15:26:09.266Z,5.63
2018-10-12T15:28:36.712Z,7.97
2018-10-12T15:31:04.109Z,1.37
2018-10-12T15:33:31.441Z,4.70
2018-10-12T15:36:00.327Z,7.30
2018-10-12T15:38:27.694Z,6.30
2018-10-12T15:40:54.987Z,6.67
2018-10-12T15:43:22.362Z,4.67
2018-10-12T15:45:49.680Z,12.30
2018-10-12T15:48:16.977Z,2.67
2018-10-12T15:50:44.287Z,3.90
2018-10-12T15:53:11.604Z,1.93
2018-10-12T15:55:38.916Z,3.60
2018-10-12T15:58:06.212Z,5.03
2018-10-12T16:00:33.445Z,3.60
2018-10-12T16:03:00.710Z,2.53
2018-10-12T16:05:28.004Z,4.63
2018-10-12T16:07:55.298Z,5.83
2018-10-12T16:10:22.591Z,4.30
2018-10-12T16:12:50.015Z,6.97
2018-10-12T16:15:17.257Z,6.43
2018-10-12T16:19:08.976Z,2.90
2018-10-12T16:21:36.219Z,3.53
2018-10-12T16:24:11.654Z,4.13
2018-10-12T16:26:39.029Z,4.60
2018-10-12T16:29:06.734Z,6.37
2018-10-12T16:31:33.914Z,5.30
2018-10-12T16:34:01.153Z,6.43
2018-10-12T16:36:28.523Z,3.00
2018-10-12T16:38:55.815Z,7.03
2018-10-12T16:41:23.194Z,6.20
2018-10-12T16:43:50.532Z,7.33
2018-10-12T16:46:17.823Z,8.50
2018-10-12T16:48:45.146Z,4.00
2018-10-12T16:51:12.393Z,1.63
2018-10-12T16:53:39.711Z,2.57
2018-10-12T16:56:07.138Z,2.90
2018-10-12T16:58:34.601Z,4.67
2018-10-12T17:01:01.914Z,11.20
2018-10-12T17:03:29.189Z,4.77
2018-10-12T17:05:56.503Z,4.80
2018-10-12T17:08:23.808Z,8.67
2018-10-12T17:12:15.661Z,2.27
2018-10-12T17:14:43.145Z,4.37
2018-10-12T17:17:10.494Z,3.03
2018-10-12T17:19:37.933Z,11.07
2018-10-12T17:22:05.283Z,4.90
2018-10-12T17:24:32.795Z,5.43
2018-10-12T17:27:00.121Z,3.57
2018-10-12T17:29:27.407Z,4.90
2018-10-12T17:31:54.705Z,16.90
2018-10-12T17:34:21.979Z,16.53
2018-10-12T17:36:49.294Z,5.10
2018-10-12T17:39:16.599Z,6.13
2018-10-12T17:41:44.104Z,5.60
2018-10-12T17:44:11.385Z,6.50
2018-10-12T17:46:38.659Z,4.77
2018-10-12T17:49:06.028Z,9.23
2018-10-12T17:51:33.360Z,5.63
2018-10-12T17:54:00.626Z,6.07
2018-10-12T17:56:27.936Z,6.77
2018-10-12T17:58:55.325Z,6.27
2018-10-12T18:01:22.734Z,7.27
2018-10-12T18:03:49.981Z,6.60
2018-10-12T18:06:17.311Z,11.67
2018-10-12T18:08:44.712Z,16.83
2018-10-12T18:11:12.063Z,8.83
2018-10-12T18:13:39.439Z,12.57
2018-10-12T18:16:06.781Z,6.73
2018-10-12T18:18:34.046Z,6.23
2018-10-12T18:21:01.597Z,4.97
2018-10-12T18:23:29.081Z,5.53
2018-10-12T18:25:56.532Z,6.90
2018-10-12T18:28:23.810Z,8.83
2018-10-12T18:30:51.171Z,7.23
2018-10-12T18:33:18.555Z,6.27
2018-10-12T18:35:45.947Z,4.20
2018-10-12T18:38:13.375Z,4.67
2018-10-12T18:40:40.697Z,7.03
2018-10-12T18:43:08.101Z,6.83
2018-10-12T18:45:35.361Z,6.13
2018-10-12T18:48:02.871Z,7.53
2018-10-12T18:50:29.954Z,4.70
2018-10-12T18:52:57.316Z,6.50
2018-10-12T18:55:24.569Z,4.30
2018-10-12T18:57:51.831Z,11.90
2018-10-12T19:00:19.121Z,5.40
2018-10-12T19:02:46.408Z,9.20
2018-10-12T19:05:13.695Z,3.97
2018-10-12T19:07:41.027Z,7.23
2018-10-12T19:10:08.304Z,6.67
2018-10-12T19:12:35.625Z,6.53
2018-10-12T19:15:02.920Z,9.50
2018-10-12T19:17:30.220Z,10.60
2018-10-12T19:19:57.499Z,6.03
2018-10-12T19:22:24.752Z,7.87
2018-10-12T19:24:52.048Z,7.10
2018-10-12T19:27:19.425Z,5.10
2018-10-12T19:29:46.755Z,9.43
2018-10-12T19:32:14.075Z,8.17
2018-10-12T19:34:41.323Z,15.87
2018-10-12T19:37:08.613Z,6.53
2018-10-12T19:39:35.927Z,7.30
2018-10-12T19:42:03.256Z,12.60
2018-10-12T19:44:31.264Z,12.40
2018-10-12T19:47:01.671Z,18.50
2018-10-12T19:49:29.025Z,10.37
2018-10-12T19:51:56.323Z,7.50
2018-10-12T19:54:23.611Z,9.33
2018-10-12T19:56:50.946Z,7.00
2018-10-12T19:59:19.055Z,6.33
2018-10-12T20:01:46.355Z,14.40
2018-10-12T20:04:13.614Z,11.87
2018-10-12T20:06:40.968Z,10.57
2018-10-12T20:09:10.068Z,9.93
2018-10-12T20:11:37.474Z,16.53
2018-10-12T20:14:04.844Z,10.97
2018-10-12T20:16:32.079Z,7.90
2018-10-12T20:18:59.347Z,11.20
2018-10-12T20:21:26.724Z,17.23
2018-10-12T20:23:54.048Z,17.53
2018-10-12T20:26:21.340Z,14.50
2018-10-12T20:28:48.594Z,9.17
2018-10-12T20:31:15.861Z,19.73
2018-10-12T20:33:43.123Z,9.67
2018-10-12T20:36:10.715Z,12.80
2018-10-12T20:38:38.085Z,16.40
2018-10-12T20:41:05.319Z,19.10
2018-10-12T20:43:32.583Z,26.67
2018-10-12T20:45:59.914Z,23.50
2018-10-12T20:48:27.162Z,22.57
2018-10-12T20:50:54.449Z,11.27
2018-10-12T20:53:21.709Z,22.20
2018-10-12T20:55:49.053Z,13.50
2018-10-12T20:58:16.742Z,15.63
2018-10-12T21:00:44.506Z,11.13
2018-10-12T21:03:11.829Z,14.63
2018-10-12T21:05:39.116Z,10.13
2018-10-12T21:08:06.378Z,13.73
2018-10-12T21:10:33.680Z,16.13
2018-10-12T21:13:01.010Z,10.80
2018-10-12T21:15:28.290Z,24.73
2018-10-12T21:17:55.606Z,18.10
2018-10-12T21:20:22.807Z,9.33
2018-10-12T21:22:50.088Z,14.63
2018-10-12T21:25:17.384Z,6.20
2018-10-12T21:27:44.682Z,10.30
2018-10-12T21:30:11.952Z,12.37
2018-10-12T21:32:39.146Z,9.50
2018-10-12T21:36:30.906Z,6.63
2018-10-12T21:38:58.230Z,7.93
2018-10-12T21:41:25.480Z,11.73
2018-10-12T21:43:52.864Z,8.43
2018-10-12T21:46:20.148Z,6.13
2018-10-12T21:48:47.463Z,11.90
2018-10-12T21:51:14.768Z,10.93
2018-10-12T21:53:42.064Z,6.20
2018-10-12T21:56:09.325Z,6.67
2018-10-12T21:58:36.629Z,13.80
2018-10-12T22:01:04.831Z,8.83
2018-10-12T22:03:33.412Z,8.47
2018-10-12T22:06:00.672Z,7.23
2018-10-12T22:08:33.525Z,9.40
2018-10-12T22:11:00.941Z,8.93
2018-10-12T22:13:28.274Z,9.13
2018-10-12T22:15:55.607Z,9.47
2018-10-12T22:18:22.878Z,6.70
2018-10-12T22:20:50.330Z,7.37
2018-10-12T22:23:17.576Z,8.67
2018-10-12T22:25:44.973Z,10.70
2018-10-12T22:28:12.245Z,12.53
2018-10-12T22:30:39.588Z,7.60
2018-10-12T22:33:06.862Z,8.10
2018-10-12T22:35:34.124Z,16.43
2018-10-12T22:38:01.526Z,17.47
2018-10-12T22:40:28.867Z,5.10
2018-10-12T22:42:56.201Z,7.80
2018-10-12T22:45:23.945Z,10.83
2018-10-12T22:47:51.185Z,11.87
2018-10-12T22:50:18.463Z,5.30
2018-10-12T22:52:45.748Z,5.83
2018-10-12T22:55:12.990Z,10.10
2018-10-12T22:57:40.256Z,8.30
2018-10-12T23:00:07.765Z,7.50
2018-10-12T23:02:35.024Z,7.13
2018-10-12T23:05:02.344Z,7.73
2018-10-12T23:07:29.605Z,5.17
2018-10-12T23:09:56.907Z,3.57
2018-10-12T23:12:24.187Z,6.40
2018-10-12T23:14:51.545Z,5.50
2018-10-12T23:17:18.866Z,7.27
2018-10-12T23:19:46.105Z,14.43
2018-10-12T23:22:13.427Z,7.97
2018-10-12T23:24:40.745Z,15.23
2018-10-12T23:27:08.058Z,12.20
2018-10-12T23:29:35.336Z,6.67
2018-10-12T23:32:02.642Z,5.67
2018-10-12T23:34:29.901Z,7.70
2018-10-12T23:36:57.206Z,5.53
2018-10-12T23:39:24.530Z,7.10
2018-10-12T23:41:51.852Z,8.50
2018-10-12T23:44:19.172Z,11.30
2018-10-12T23:46:46.401Z,11.80
2018-10-12T23:49:13.689Z,11.80
2018-10-12T23:51:41.032Z,6.57
2018-10-12T23:54:08.309Z,4.93
2018-10-12T23:56:35.658Z,12.37
